sensor_id;sensor_type;location;lat;lon;timestamp;temperature;humidity
12287;DHT22;6206;53.100;11.098;2022-09-09T00:01:52;15.10;99.90
12287;DHT22;6206;53.100;11.098;2022-09-09T00:04:26;15.20;99.90
12287;DHT22;6206;53.100;11.098;2022-09-09T00:07:03;15.30;99.90
12287;DHT22;6206;53.100;11.098;2022-09-09T00:09:36;15.60;99.90
12287;DHT22;6206;53.100;11.098;2022-09-09T00:12:11;15.40;99.90
12287;DHT22;6206;53.100;11.098;2022-09-09T00:14:47;15.40;99.90
12287;DHT22;6206;53.100;11.098;2022-09-09T00:17:30;15.30;99.90
12287;DHT22;6206;53.100;11.098;2022-09-09T00:20:01;15.30;99.90
12287;DHT22;6206;53.100;11.098;2022-09-09T00:22:30;15.30;99.90
12287;DHT22;6206;53.100;11.098;2022-09-09T00:25:05;15.30;99.90
12287;DHT22;6206;53.100;11.098;2022-09-09T00:27:41;15.30;99.90
12287;DHT22;6206;53.100;11.098;2022-09-09T00:30:17;15.40;99.90
12287;DHT22;6206;53.100;11.098;2022-09-09T00:32:48;15.30;99.90
12287;DHT22;6206;53.100;11.098;2022-09-09T00:35:18;15.30;99.90
12287;DHT22;6206;53.100;11.098;2022-09-09T00:37:49;15.30;99.90
12287;DHT22;6206;53.100;11.098;2022-09-09T00:40:23;15.20;99.90
12287;DHT22;6206;53.100;11.098;2022-09-09T00:42:58;15.20;99.90
12287;DHT22;6206;53.100;11.098;2022-09-09T00:46:01;15.30;99.90
12287;DHT22;6206;53.100;11.098;2022-09-09T00:48:38;15.30;99.90
12287;DHT22;6206;53.100;11.098;2022-09-09T00:51:13;15.30;99.90
12287;DHT22;6206;53.100;11.098;2022-09-09T00:54:00;15.40;99.90
12287;DHT22;6206;53.100;11.098;2022-09-09T00:56:33;15.30;99.90
12287;DHT22;6206;53.100;11.098;2022-09-09T00:59:16;15.30;99.90
12287;DHT22;6206;53.100;11.098;2022-09-09T01:01:50;15.30;99.90
12287;DHT22;6206;53.100;11.098;2022-09-09T01:04:28;15.30;99.90
12287;DHT22;6206;53.100;11.098;2022-09-09T01:07:03;15.30;99.90
12287;DHT22;6206;53.100;11.098;2022-09-09T01:09:38;15.30;99.90
12287;DHT22;6206;53.100;11.098;2022-09-09T01:12:12;15.30;99.90
12287;DHT22;6206;53.100;11.098;2022-09-09T01:14:45;15.40;99.90
12287;DHT22;6206;53.100;11.098;2022-09-09T01:17:17;15.30;99.90
12287;DHT22;6206;53.100;11.098;2022-09-09T01:19:58;15.30;99.90
12287;DHT22;6206;53.100;11.098;2022-09-09T01:22:34;15.60;99.90
12287;DHT22;6206;53.100;11.098;2022-09-09T01:25:22;15.30;99.90
12287;DHT22;6206;53.100;11.098;2022-09-09T01:27:55;15.20;99.90
12287;DHT22;6206;53.100;11.098;2022-09-09T01:30:23;15.20;99.90
12287;DHT22;6206;53.100;11.098;2022-09-09T01:32:53;15.20;99.90
12287;DHT22;6206;53.100;11.098;2022-09-09T01:35:32;15.20;99.90
12287;DHT22;6206;53.100;11.098;2022-09-09T01:37:59;15.10;99.90
12287;DHT22;6206;53.100;11.098;2022-09-09T01:40:26;15.10;99.90
12287;DHT22;6206;53.100;11.098;2022-09-09T01:42:55;15.00;99.90
12287;DHT22;6206;53.100;11.098;2022-09-09T01:45:23;15.00;99.90
12287;DHT22;6206;53.100;11.098;2022-09-09T01:47:52;14.90;99.90
12287;DHT22;6206;53.100;11.098;2022-09-09T01:50:19;14.90;99.90
12287;DHT22;6206;53.100;11.098;2022-09-09T01:52:49;14.80;99.90
12287;DHT22;6206;53.100;11.098;2022-09-09T01:55:18;14.90;99.90
12287;DHT22;6206;53.100;11.098;2022-09-09T01:57:53;14.90;99.90
12287;DHT22;6206;53.100;11.098;2022-09-09T02:00:23;14.80;99.90
12287;DHT22;6206;53.100;11.098;2022-09-09T02:02:57;14.80;99.90
12287;DHT22;6206;53.100;11.098;2022-09-09T02:05:34;14.40;99.90
12287;DHT22;6206;53.100;11.098;2022-09-09T02:08:06;14.70;99.90
12287;DHT22;6206;53.100;11.098;2022-09-09T02:10:40;14.80;99.90
12287;DHT22;6206;53.100;11.098;2022-09-09T02:13:10;15.00;99.90
12287;DHT22;6206;53.100;11.098;2022-09-09T02:15:45;14.80;99.90
12287;DHT22;6206;53.100;11.098;2022-09-09T02:18:15;14.70;99.90
12287;DHT22;6206;53.100;11.098;2022-09-09T02:20:45;14.70;99.90
12287;DHT22;6206;53.100;11.098;2022-09-09T02:23:13;14.70;99.90
12287;DHT22;6206;53.100;11.098;2022-09-09T02:25:41;14.70;99.90
12287;DHT22;6206;53.100;11.098;2022-09-09T02:28:10;14.80;99.90
12287;DHT22;6206;53.100;11.098;2022-09-09T02:30:41;14.70;99.90
12287;DHT22;6206;53.100;11.098;2022-09-09T02:33:11;14.60;99.90
12287;DHT22;6206;53.100;11.098;2022-09-09T02:35:39;14.60;99.90
12287;DHT22;6206;53.100;11.098;2022-09-09T02:38:09;14.60;99.90
12287;DHT22;6206;53.100;11.098;2022-09-09T02:40:37;14.60;99.90
12287;DHT22;6206;53.100;11.098;2022-09-09T02:43:04;14.50;99.90
12287;DHT22;6206;53.100;11.098;2022-09-09T02:45:36;14.40;99.90
12287;DHT22;6206;53.100;11.098;2022-09-09T02:48:11;14.90;99.90
12287;DHT22;6206;53.100;11.098;2022-09-09T02:50:48;14.40;99.90
12287;DHT22;6206;53.100;11.098;2022-09-09T02:53:22;14.30;99.90
12287;DHT22;6206;53.100;11.098;2022-09-09T02:55:55;14.30;99.90
12287;DHT22;6206;53.100;11.098;2022-09-09T02:58:24;14.20;99.90
12287;DHT22;6206;53.100;11.098;2022-09-09T03:00:51;14.20;99.90
12287;DHT22;6206;53.100;11.098;2022-09-09T03:03:20;14.10;99.90
12287;DHT22;6206;53.100;11.098;2022-09-09T03:05:47;14.10;99.90
12287;DHT22;6206;53.100;11.098;2022-09-09T03:08:15;14.10;99.90
12287;DHT22;6206;53.100;11.098;2022-09-09T03:10:42;14.10;99.90
12287;DHT22;6206;53.100;11.098;2022-09-09T03:13:09;14.10;99.90
12287;DHT22;6206;53.100;11.098;2022-09-09T03:15:38;14.10;99.90
12287;DHT22;6206;53.100;11.098;2022-09-09T03:18:05;14.10;99.90
12287;DHT22;6206;53.100;11.098;2022-09-09T03:20:33;14.10;99.90
12287;DHT22;6206;53.100;11.098;2022-09-09T03:23:00;14.00;99.90
12287;DHT22;6206;53.100;11.098;2022-09-09T03:25:28;14.20;99.90
12287;DHT22;6206;53.100;11.098;2022-09-09T03:27:55;14.00;99.90
12287;DHT22;6206;53.100;11.098;2022-09-09T03:30:23;13.90;99.90
12287;DHT22;6206;53.100;11.098;2022-09-09T03:32:50;14.00;99.90
12287;DHT22;6206;53.100;11.098;2022-09-09T03:35:17;13.70;99.90
12287;DHT22;6206;53.100;11.098;2022-09-09T03:37:46;13.70;99.90
12287;DHT22;6206;53.100;11.098;2022-09-09T03:40:13;13.80;99.90
12287;DHT22;6206;53.100;11.098;2022-09-09T03:42:40;13.70;99.90
12287;DHT22;6206;53.100;11.098;2022-09-09T03:45:08;17.40;99.90
12287;DHT22;6206;53.100;11.098;2022-09-09T03:47:36;13.80;99.90
12287;DHT22;6206;53.100;11.098;2022-09-09T03:50:04;17.20;99.90
12287;DHT22;6206;53.100;11.098;2022-09-09T03:52:34;13.90;99.90
12287;DHT22;6206;53.100;11.098;2022-09-09T03:55:03;17.10;99.90
12287;DHT22;6206;53.100;11.098;2022-09-09T03:57:30;13.80;99.90
12287;DHT22;6206;53.100;11.098;2022-09-09T03:59:57;14.80;99.90
12287;DHT22;6206;53.100;11.098;2022-09-09T04:02:26;16.90;99.90
12287;DHT22;6206;53.100;11.098;2022-09-09T04:04:53;17.90;99.90
12287;DHT22;6206;53.100;11.098;2022-09-09T04:07:19;16.90;99.90
12287;DHT22;6206;53.100;11.098;2022-09-09T04:09:46;16.30;99.90
12287;DHT22;6206;53.100;11.098;2022-09-09T04:12:14;14.10;99.90
12287;DHT22;6206;53.100;11.098;2022-09-09T04:14:42;17.50;99.90
12287;DHT22;6206;53.100;11.098;2022-09-09T04:17:08;13.70;99.90
12287;DHT22;6206;53.100;11.098;2022-09-09T04:19:35;17.70;99.90
12287;DHT22;6206;53.100;11.098;2022-09-09T04:22:02;16.50;99.90
12287;DHT22;6206;53.100;11.098;2022-09-09T04:24:28;17.70;99.90
12287;DHT22;6206;53.100;11.098;2022-09-09T04:26:55;15.90;99.90
12287;DHT22;6206;53.100;11.098;2022-09-09T04:29:23;17.30;99.90
12287;DHT22;6206;53.100;11.098;2022-09-09T04:31:50;13.30;99.90
12287;DHT22;6206;53.100;11.098;2022-09-09T04:34:16;13.50;99.90
12287;DHT22;6206;53.100;11.098;2022-09-09T04:36:43;17.60;99.90
12287;DHT22;6206;53.100;11.098;2022-09-09T04:39:10;17.70;99.90
12287;DHT22;6206;53.100;11.098;2022-09-09T04:41:36;16.90;99.90
12287;DHT22;6206;53.100;11.098;2022-09-09T04:44:03;16.60;99.90
12287;DHT22;6206;53.100;11.098;2022-09-09T04:46:31;17.10;99.90
12287;DHT22;6206;53.100;11.098;2022-09-09T04:48:59;15.20;99.90
12287;DHT22;6206;53.100;11.098;2022-09-09T04:51:26;13.70;99.90
12287;DHT22;6206;53.100;11.098;2022-09-09T04:53:53;17.90;99.90
12287;DHT22;6206;53.100;11.098;2022-09-09T04:56:20;16.20;99.90
12287;DHT22;6206;53.100;11.098;2022-09-09T04:58:46;17.20;99.90
12287;DHT22;6206;53.100;11.098;2022-09-09T05:01:15;15.70;99.90
12287;DHT22;6206;53.100;11.098;2022-09-09T05:03:44;16.20;99.90
12287;DHT22;6206;53.100;11.098;2022-09-09T05:06:13;16.50;99.90
12287;DHT22;6206;53.100;11.098;2022-09-09T05:08:41;14.30;99.90
12287;DHT22;6206;53.100;11.098;2022-09-09T05:11:16;15.30;99.90
12287;DHT22;6206;53.100;11.098;2022-09-09T05:13:44;17.60;99.90
12287;DHT22;6206;53.100;11.098;2022-09-09T05:16:11;17.40;99.90
12287;DHT22;6206;53.100;11.098;2022-09-09T05:18:38;17.90;99.90
12287;DHT22;6206;53.100;11.098;2022-09-09T05:21:06;17.50;99.90
12287;DHT22;6206;53.100;11.098;2022-09-09T05:23:34;14.90;99.90
12287;DHT22;6206;53.100;11.098;2022-09-09T05:26:01;13.80;99.90
12287;DHT22;6206;53.100;11.098;2022-09-09T05:28:28;18.20;99.90
12287;DHT22;6206;53.100;11.098;2022-09-09T05:30:57;17.50;99.90
12287;DHT22;6206;53.100;11.098;2022-09-09T05:33:24;16.60;99.90
12287;DHT22;6206;53.100;11.098;2022-09-09T05:35:56;17.10;99.90
12287;DHT22;6206;53.100;11.098;2022-09-09T05:38:24;16.80;99.90
12287;DHT22;6206;53.100;11.098;2022-09-09T05:40:51;15.00;99.90
12287;DHT22;6206;53.100;11.098;2022-09-09T05:43:18;17.80;99.90
12287;DHT22;6206;53.100;11.098;2022-09-09T05:45:46;16.70;99.90
12287;DHT22;6206;53.100;11.098;2022-09-09T05:48:13;17.50;99.90
12287;DHT22;6206;53.100;11.098;2022-09-09T05:50:41;15.10;99.90
12287;DHT22;6206;53.100;11.098;2022-09-09T05:53:08;14.00;99.90
12287;DHT22;6206;53.100;11.098;2022-09-09T05:55:36;16.90;99.90
12287;DHT22;6206;53.100;11.098;2022-09-09T05:58:03;17.70;99.90
12287;DHT22;6206;53.100;11.098;2022-09-09T06:00:29;16.10;99.90
12287;DHT22;6206;53.100;11.098;2022-09-09T06:02:57;14.10;99.90
12287;DHT22;6206;53.100;11.098;2022-09-09T06:05:24;16.90;99.90
12287;DHT22;6206;53.100;11.098;2022-09-09T06:07:54;17.70;99.90
12287;DHT22;6206;53.100;11.098;2022-09-09T06:10:21;14.30;99.90
12287;DHT22;6206;53.100;11.098;2022-09-09T06:12:52;17.90;99.90
12287;DHT22;6206;53.100;11.098;2022-09-09T06:15:19;16.20;99.90
12287;DHT22;6206;53.100;11.098;2022-09-09T06:17:45;17.60;99.90
12287;DHT22;6206;53.100;11.098;2022-09-09T06:20:12;16.30;99.90
12287;DHT22;6206;53.100;11.098;2022-09-09T06:22:39;14.40;99.90
12287;DHT22;6206;53.100;11.098;2022-09-09T06:25:08;17.10;99.90
12287;DHT22;6206;53.100;11.098;2022-09-09T06:27:35;14.50;99.90
12287;DHT22;6206;53.100;11.098;2022-09-09T06:30:03;15.80;99.90
12287;DHT22;6206;53.100;11.098;2022-09-09T06:32:30;13.20;99.90
12287;DHT22;6206;53.100;11.098;2022-09-09T06:35:02;16.60;99.90
12287;DHT22;6206;53.100;11.098;2022-09-09T06:37:28;14.90;99.90
12287;DHT22;6206;53.100;11.098;2022-09-09T06:39:55;18.00;99.90
12287;DHT22;6206;53.100;11.098;2022-09-09T06:42:22;16.80;99.90
12287;DHT22;6206;53.100;11.098;2022-09-09T06:44:48;15.10;99.90
12287;DHT22;6206;53.100;11.098;2022-09-09T06:47:16;15.50;99.90
12287;DHT22;6206;53.100;11.098;2022-09-09T06:49:43;16.70;99.90
12287;DHT22;6206;53.100;11.098;2022-09-09T06:52:10;16.50;99.90
12287;DHT22;6206;53.100;11.098;2022-09-09T06:54:37;15.20;99.90
12287;DHT22;6206;53.100;11.098;2022-09-09T06:57:04;16.60;99.90
12287;DHT22;6206;53.100;11.098;2022-09-09T06:59:32;15.90;99.90
12287;DHT22;6206;53.100;11.098;2022-09-09T07:01:59;17.50;99.90
12287;DHT22;6206;53.100;11.098;2022-09-09T07:04:27;16.80;99.90
12287;DHT22;6206;53.100;11.098;2022-09-09T07:06:54;16.40;99.90
12287;DHT22;6206;53.100;11.098;2022-09-09T07:09:21;17.20;99.90
12287;DHT22;6206;53.100;11.098;2022-09-09T07:11:49;16.80;99.90
12287;DHT22;6206;53.100;11.098;2022-09-09T07:14:16;16.50;99.90
12287;DHT22;6206;53.100;11.098;2022-09-09T07:16:43;17.80;99.90
12287;DHT22;6206;53.100;11.098;2022-09-09T07:19:11;15.70;99.90
12287;DHT22;6206;53.100;11.098;2022-09-09T07:21:41;19.60;99.90
12287;DHT22;6206;53.100;11.098;2022-09-09T07:24:08;17.70;99.90
12287;DHT22;6206;53.100;11.098;2022-09-09T07:26:37;19.30;99.90
12287;DHT22;6206;53.100;11.098;2022-09-09T07:29:04;18.20;99.90
12287;DHT22;6206;53.100;11.098;2022-09-09T07:31:32;19.50;99.90
12287;DHT22;6206;53.100;11.098;2022-09-09T07:33:59;16.00;99.90
12287;DHT22;6206;53.100;11.098;2022-09-09T07:36:28;20.20;99.90
12287;DHT22;6206;53.100;11.098;2022-09-09T07:38:58;19.90;99.90
12287;DHT22;6206;53.100;11.098;2022-09-09T07:41:27;19.50;99.90
12287;DHT22;6206;53.100;11.098;2022-09-09T07:43:54;20.10;99.90
12287;DHT22;6206;53.100;11.098;2022-09-09T07:46:22;17.10;99.90
12287;DHT22;6206;53.100;11.098;2022-09-09T07:48:50;20.30;99.90
12287;DHT22;6206;53.100;11.098;2022-09-09T07:51:20;18.20;99.90
12287;DHT22;6206;53.100;11.098;2022-09-09T07:53:48;20.20;99.90
12287;DHT22;6206;53.100;11.098;2022-09-09T07:56:17;20.30;99.90
12287;DHT22;6206;53.100;11.098;2022-09-09T07:58:48;19.30;99.90
12287;DHT22;6206;53.100;11.098;2022-09-09T08:01:17;20.90;99.90
12287;DHT22;6206;53.100;11.098;2022-09-09T08:03:44;17.10;99.90
12287;DHT22;6206;53.100;11.098;2022-09-09T08:06:12;17.10;99.90
12287;DHT22;6206;53.100;11.098;2022-09-09T08:08:40;20.90;99.90
12287;DHT22;6206;53.100;11.098;2022-09-09T08:11:10;18.80;99.90
12287;DHT22;6206;53.100;11.098;2022-09-09T08:13:39;20.10;99.90
12287;DHT22;6206;53.100;11.098;2022-09-09T08:16:08;19.80;99.90
12287;DHT22;6206;53.100;11.098;2022-09-09T08:18:35;21.00;99.90
12287;DHT22;6206;53.100;11.098;2022-09-09T08:21:08;19.40;99.90
12287;DHT22;6206;53.100;11.098;2022-09-09T08:23:37;17.20;99.90
12287;DHT22;6206;53.100;11.098;2022-09-09T08:26:06;20.30;99.90
12287;DHT22;6206;53.100;11.098;2022-09-09T08:28:34;17.30;99.90
12287;DHT22;6206;53.100;11.098;2022-09-09T08:31:11;17.20;99.90
12287;DHT22;6206;53.100;11.098;2022-09-09T08:33:38;19.60;99.90
12287;DHT22;6206;53.100;11.098;2022-09-09T08:36:09;20.10;99.90
12287;DHT22;6206;53.100;11.098;2022-09-09T08:38:37;20.20;99.90
12287;DHT22;6206;53.100;11.098;2022-09-09T08:41:30;20.60;99.90
12287;DHT22;6206;53.100;11.098;2022-09-09T08:44:05;20.80;99.90
12287;DHT22;6206;53.100;11.098;2022-09-09T08:46:41;17.60;99.90
12287;DHT22;6206;53.100;11.098;2022-09-09T08:49:20;20.90;99.90
12287;DHT22;6206;53.100;11.098;2022-09-09T08:51:54;20.40;99.90
12287;DHT22;6206;53.100;11.098;2022-09-09T08:54:21;20.60;99.90
12287;DHT22;6206;53.100;11.098;2022-09-09T08:56:49;17.90;99.90
12287;DHT22;6206;53.100;11.098;2022-09-09T08:59:17;21.10;99.90
12287;DHT22;6206;53.100;11.098;2022-09-09T09:01:56;19.80;99.90
12287;DHT22;6206;53.100;11.098;2022-09-09T09:04:36;19.50;99.90
12287;DHT22;6206;53.100;11.098;2022-09-09T09:07:11;17.80;99.90
12287;DHT22;6206;53.100;11.098;2022-09-09T09:09:47;22.50;99.90
12287;DHT22;6206;53.100;11.098;2022-09-09T09:12:16;19.80;99.90
12287;DHT22;6206;53.100;11.098;2022-09-09T09:14:46;18.60;99.90
12287;DHT22;6206;53.100;11.098;2022-09-09T09:17:17;20.60;99.90
12287;DHT22;6206;53.100;11.098;2022-09-09T09:19:45;20.40;99.90
12287;DHT22;6206;53.100;11.098;2022-09-09T09:22:14;21.40;99.90
12287;DHT22;6206;53.100;11.098;2022-09-09T09:24:44;21.00;99.90
12287;DHT22;6206;53.100;11.098;2022-09-09T09:27:13;20.20;99.90
12287;DHT22;6206;53.100;11.098;2022-09-09T09:29:40;21.00;99.90
12287;DHT22;6206;53.100;11.098;2022-09-09T09:32:09;20.80;99.90
12287;DHT22;6206;53.100;11.098;2022-09-09T09:34:39;20.70;99.90
12287;DHT22;6206;53.100;11.098;2022-09-09T09:37:12;21.70;99.90
12287;DHT22;6206;53.100;11.098;2022-09-09T09:39:42;21.30;99.90
12287;DHT22;6206;53.100;11.098;2022-09-09T09:42:10;21.70;99.90
12287;DHT22;6206;53.100;11.098;2022-09-09T09:44:39;20.20;99.90
12287;DHT22;6206;53.100;11.098;2022-09-09T09:47:10;21.10;99.90
12287;DHT22;6206;53.100;11.098;2022-09-09T09:49:39;20.30;99.90
12287;DHT22;6206;53.100;11.098;2022-09-09T09:52:12;20.50;99.90
12287;DHT22;6206;53.100;11.098;2022-09-09T09:54:42;19.70;99.90
12287;DHT22;6206;53.100;11.098;2022-09-09T09:57:09;21.40;99.90
12287;DHT22;6206;53.100;11.098;2022-09-09T09:59:38;19.70;99.90
12287;DHT22;6206;53.100;11.098;2022-09-09T10:02:17;20.50;99.90
12287;DHT22;6206;53.100;11.098;2022-09-09T10:04:46;20.60;99.90
12287;DHT22;6206;53.100;11.098;2022-09-09T10:07:17;20.50;99.90
12287;DHT22;6206;53.100;11.098;2022-09-09T10:09:44;21.20;99.90
12287;DHT22;6206;53.100;11.098;2022-09-09T10:12:19;20.20;99.90
12287;DHT22;6206;53.100;11.098;2022-09-09T10:14:55;22.20;99.90
12287;DHT22;6206;53.100;11.098;2022-09-09T10:17:28;20.90;99.90
12287;DHT22;6206;53.100;11.098;2022-09-09T10:20:13;20.50;99.90
12287;DHT22;6206;53.100;11.098;2022-09-09T10:22:47;20.40;99.90
12287;DHT22;6206;53.100;11.098;2022-09-09T10:25:34;20.50;99.90
12287;DHT22;6206;53.100;11.098;2022-09-09T10:31:16;20.40;99.90
12287;DHT22;6206;53.100;11.098;2022-09-09T10:33:49;20.30;99.90
12287;DHT22;6206;53.100;11.098;2022-09-09T10:36:21;22.50;99.90
12287;DHT22;6206;53.100;11.098;2022-09-09T10:38:52;22.10;99.90
12287;DHT22;6206;53.100;11.098;2022-09-09T10:41:37;21.20;99.90
12287;DHT22;6206;53.100;11.098;2022-09-09T10:44:17;20.60;99.90
12287;DHT22;6206;53.100;11.098;2022-09-09T10:47:01;20.80;99.90
12287;DHT22;6206;53.100;11.098;2022-09-09T10:49:48;22.30;99.90
12287;DHT22;6206;53.100;11.098;2022-09-09T10:52:24;20.50;99.90
12287;DHT22;6206;53.100;11.098;2022-09-09T10:54:59;22.20;99.90
12287;DHT22;6206;53.100;11.098;2022-09-09T10:57:31;21.40;99.90
12287;DHT22;6206;53.100;11.098;2022-09-09T11:00:03;21.50;99.90
12287;DHT22;6206;53.100;11.098;2022-09-09T11:02:33;21.00;99.90
12287;DHT22;6206;53.100;11.098;2022-09-09T11:05:03;20.90;99.90
12287;DHT22;6206;53.100;11.098;2022-09-09T11:07:36;21.30;99.90
12287;DHT22;6206;53.100;11.098;2022-09-09T11:10:13;22.50;99.90
12287;DHT22;6206;53.100;11.098;2022-09-09T11:12:43;21.50;99.90
12287;DHT22;6206;53.100;11.098;2022-09-09T11:15:17;21.60;99.90
12287;DHT22;6206;53.100;11.098;2022-09-09T11:17:47;21.60;99.90
12287;DHT22;6206;53.100;11.098;2022-09-09T11:20:16;21.80;99.90
12287;DHT22;6206;53.100;11.098;2022-09-09T11:22:48;21.20;99.90
12287;DHT22;6206;53.100;11.098;2022-09-09T11:25:20;21.30;99.90
12287;DHT22;6206;53.100;11.098;2022-09-09T11:28:01;21.50;99.90
12287;DHT22;6206;53.100;11.098;2022-09-09T11:30:37;22.20;99.90
12287;DHT22;6206;53.100;11.098;2022-09-09T11:33:24;22.00;99.90
12287;DHT22;6206;53.100;11.098;2022-09-09T11:36:04;20.60;99.90
12287;DHT22;6206;53.100;11.098;2022-09-09T11:38:44;21.10;99.90
12287;DHT22;6206;53.100;11.098;2022-09-09T11:41:12;20.70;99.90
12287;DHT22;6206;53.100;11.098;2022-09-09T11:43:41;21.70;99.90
12287;DHT22;6206;53.100;11.098;2022-09-09T11:46:09;20.30;99.90
12287;DHT22;6206;53.100;11.098;2022-09-09T11:48:38;20.50;99.90
12287;DHT22;6206;53.100;11.098;2022-09-09T11:51:10;21.70;99.90
12287;DHT22;6206;53.100;11.098;2022-09-09T11:53:49;20.80;99.90
12287;DHT22;6206;53.100;11.098;2022-09-09T11:56:26;21.10;99.90
12287;DHT22;6206;53.100;11.098;2022-09-09T11:58:55;22.40;99.90
12287;DHT22;6206;53.100;11.098;2022-09-09T12:01:28;22.50;99.90
12287;DHT22;6206;53.100;11.098;2022-09-09T12:04:21;22.00;99.90
12287;DHT22;6206;53.100;11.098;2022-09-09T12:06:57;21.50;99.90
12287;DHT22;6206;53.100;11.098;2022-09-09T12:09:33;21.60;99.90
12287;DHT22;6206;53.100;11.098;2022-09-09T12:12:17;21.80;99.90
12287;DHT22;6206;53.100;11.098;2022-09-09T12:14:56;21.30;99.90
12287;DHT22;6206;53.100;11.098;2022-09-09T12:17:26;23.10;99.90
12287;DHT22;6206;53.100;11.098;2022-09-09T12:20:02;23.20;99.90
12287;DHT22;6206;53.100;11.098;2022-09-09T12:22:36;21.50;99.90
12287;DHT22;6206;53.100;11.098;2022-09-09T12:25:13;21.50;99.90
12287;DHT22;6206;53.100;11.098;2022-09-09T12:27:46;21.00;99.90
12287;DHT22;6206;53.100;11.098;2022-09-09T12:30:17;21.70;99.90
12287;DHT22;6206;53.100;11.098;2022-09-09T12:32:45;22.60;99.90
12287;DHT22;6206;53.100;11.098;2022-09-09T12:35:13;21.80;99.90
12287;DHT22;6206;53.100;11.098;2022-09-09T12:37:44;20.80;99.90
12287;DHT22;6206;53.100;11.098;2022-09-09T12:40:21;21.00;99.90
12287;DHT22;6206;53.100;11.098;2022-09-09T12:42:49;21.00;99.90
12287;DHT22;6206;53.100;11.098;2022-09-09T12:45:18;21.30;99.90
12287;DHT22;6206;53.100;11.098;2022-09-09T12:47:48;20.90;99.90
12287;DHT22;6206;53.100;11.098;2022-09-09T12:50:18;21.10;99.90
12287;DHT22;6206;53.100;11.098;2022-09-09T12:52:47;21.10;99.90
12287;DHT22;6206;53.100;11.098;2022-09-09T12:55:18;21.10;99.90
12287;DHT22;6206;53.100;11.098;2022-09-09T12:57:49;20.70;99.90
12287;DHT22;6206;53.100;11.098;2022-09-09T13:00:18;20.40;99.90
12287;DHT22;6206;53.100;11.098;2022-09-09T13:02:48;20.30;99.90
12287;DHT22;6206;53.100;11.098;2022-09-09T13:05:18;20.20;99.90
12287;DHT22;6206;53.100;11.098;2022-09-09T13:07:45;20.00;99.90
12287;DHT22;6206;53.100;11.098;2022-09-09T13:10:14;20.10;99.90
12287;DHT22;6206;53.100;11.098;2022-09-09T13:12:42;20.20;99.90
12287;DHT22;6206;53.100;11.098;2022-09-09T13:15:16;20.30;99.90
12287;DHT22;6206;53.100;11.098;2022-09-09T13:17:49;20.20;99.90
12287;DHT22;6206;53.100;11.098;2022-09-09T13:20:16;21.00;99.90
12287;DHT22;6206;53.100;11.098;2022-09-09T13:22:43;20.40;99.90
12287;DHT22;6206;53.100;11.098;2022-09-09T13:25:17;21.70;99.90
12287;DHT22;6206;53.100;11.098;2022-09-09T13:27:56;22.20;99.90
12287;DHT22;6206;53.100;11.098;2022-09-09T13:30:27;21.30;99.90
12287;DHT22;6206;53.100;11.098;2022-09-09T13:33:06;19.30;99.90
12287;DHT22;6206;53.100;11.098;2022-09-09T13:35:32;19.10;99.90
12287;DHT22;6206;53.100;11.098;2022-09-09T13:38:06;20.60;99.90
12287;DHT22;6206;53.100;11.098;2022-09-09T13:40:34;18.90;99.90
12287;DHT22;6206;53.100;11.098;2022-09-09T13:43:02;20.20;99.90
12287;DHT22;6206;53.100;11.098;2022-09-09T13:45:30;20.60;99.90
12287;DHT22;6206;53.100;11.098;2022-09-09T13:47:56;18.90;99.90
12287;DHT22;6206;53.100;11.098;2022-09-09T13:50:24;20.50;99.90
12287;DHT22;6206;53.100;11.098;2022-09-09T13:52:51;22.00;99.90
12287;DHT22;6206;53.100;11.098;2022-09-09T13:55:18;20.60;99.90
12287;DHT22;6206;53.100;11.098;2022-09-09T13:57:50;21.00;99.90
12287;DHT22;6206;53.100;11.098;2022-09-09T14:00:16;18.20;99.90
12287;DHT22;6206;53.100;11.098;2022-09-09T14:02:44;20.50;99.90
12287;DHT22;6206;53.100;11.098;2022-09-09T14:05:11;20.00;99.90
12287;DHT22;6206;53.100;11.098;2022-09-09T14:07:37;17.50;99.90
12287;DHT22;6206;53.100;11.098;2022-09-09T14:10:06;19.60;99.90
12287;DHT22;6206;53.100;11.098;2022-09-09T14:12:32;17.50;99.90
12287;DHT22;6206;53.100;11.098;2022-09-09T14:14:59;17.70;99.90
12287;DHT22;6206;53.100;11.098;2022-09-09T14:17:26;19.90;99.90
12287;DHT22;6206;53.100;11.098;2022-09-09T14:19:57;20.10;99.90
12287;DHT22;6206;53.100;11.098;2022-09-09T14:22:24;20.40;99.90
12287;DHT22;6206;53.100;11.098;2022-09-09T14:24:51;19.30;99.90
12287;DHT22;6206;53.100;11.098;2022-09-09T14:27:18;20.50;99.90
12287;DHT22;6206;53.100;11.098;2022-09-09T14:29:45;19.40;99.90
12287;DHT22;6206;53.100;11.098;2022-09-09T14:32:11;17.70;99.90
12287;DHT22;6206;53.100;11.098;2022-09-09T14:34:38;20.30;99.90
12287;DHT22;6206;53.100;11.098;2022-09-09T14:37:07;18.00;99.90
12287;DHT22;6206;53.100;11.098;2022-09-09T14:39:33;20.00;99.90
12287;DHT22;6206;53.100;11.098;2022-09-09T14:42:00;16.90;99.90
12287;DHT22;6206;53.100;11.098;2022-09-09T14:44:27;20.80;99.90
12287;DHT22;6206;53.100;11.098;2022-09-09T14:46:54;19.90;99.90
12287;DHT22;6206;53.100;11.098;2022-09-09T14:49:21;20.10;99.90
12287;DHT22;6206;53.100;11.098;2022-09-09T14:51:47;20.20;99.90
12287;DHT22;6206;53.100;11.098;2022-09-09T14:54:15;16.40;99.90
12287;DHT22;6206;53.100;11.098;2022-09-09T14:56:42;20.40;99.90
12287;DHT22;6206;53.100;11.098;2022-09-09T14:59:09;19.60;99.90
12287;DHT22;6206;53.100;11.098;2022-09-09T15:01:35;16.10;99.90
12287;DHT22;6206;53.100;11.098;2022-09-09T15:04:03;17.60;99.90
12287;DHT22;6206;53.100;11.098;2022-09-09T15:06:33;16.70;99.90
12287;DHT22;6206;53.100;11.098;2022-09-09T15:09:00;15.80;99.90
12287;DHT22;6206;53.100;11.098;2022-09-09T15:11:28;15.80;99.90
12287;DHT22;6206;53.100;11.098;2022-09-09T15:13:57;15.70;99.90
12287;DHT22;6206;53.100;11.098;2022-09-09T15:16:25;15.60;99.90
12287;DHT22;6206;53.100;11.098;2022-09-09T15:18:53;19.90;99.90
12287;DHT22;6206;53.100;11.098;2022-09-09T15:21:20;18.80;99.90
12287;DHT22;6206;53.100;11.098;2022-09-09T15:23:47;15.40;99.90
12287;DHT22;6206;53.100;11.098;2022-09-09T15:26:14;15.90;99.90
12287;DHT22;6206;53.100;11.098;2022-09-09T15:28:44;17.70;99.90
12287;DHT22;6206;53.100;11.098;2022-09-09T15:31:11;15.60;99.90
12287;DHT22;6206;53.100;11.098;2022-09-09T15:33:39;19.70;99.90
12287;DHT22;6206;53.100;11.098;2022-09-09T15:36:12;19.70;99.90
12287;DHT22;6206;53.100;11.098;2022-09-09T15:38:39;19.60;99.90
12287;DHT22;6206;53.100;11.098;2022-09-09T15:41:05;19.30;99.90
12287;DHT22;6206;53.100;11.098;2022-09-09T15:43:32;16.70;99.90
12287;DHT22;6206;53.100;11.098;2022-09-09T15:46:05;19.70;99.90
12287;DHT22;6206;53.100;11.098;2022-09-09T15:48:35;18.60;99.90
12287;DHT22;6206;53.100;11.098;2022-09-09T15:51:04;19.40;99.90
12287;DHT22;6206;53.100;11.098;2022-09-09T15:53:30;16.00;99.90